sensor_id;sensor_type;location;lat;lon;timestamp;temperature;humidity
1413;DHT22;701;52.526;13.408;2022-09-09T00:01:28;15.70;62.20
1413;DHT22;701;52.526;13.408;2022-09-09T00:03:43;15.60;62.00
1413;DHT22;701;52.526;13.408;2022-09-09T00:06:22;15.60;62.00
1413;DHT22;701;52.526;13.408;2022-09-09T00:09:02;15.60;62.00
1413;DHT22;701;52.526;13.408;2022-09-09T00:11:40;15.60;62.10
1413;DHT22;701;52.526;13.408;2022-09-09T00:14:13;15.60;62.30
1413;DHT22;701;52.526;13.408;2022-09-09T00:16:41;15.60;62.80
1413;DHT22;701;52.526;13.408;2022-09-09T00:22:15;15.60;63.10
1413;DHT22;701;52.526;13.408;2022-09-09T00:24:46;15.50;62.90
1413;DHT22;701;52.526;13.408;2022-09-09T00:29:53;15.50;63.00
1413;DHT22;701;52.526;13.408;2022-09-09T00:32:21;15.50;62.90
1413;DHT22;701;52.526;13.408;2022-09-09T00:34:51;15.50;63.00
1413;DHT22;701;52.526;13.408;2022-09-09T00:37:19;15.50;63.20
1413;DHT22;701;52.526;13.408;2022-09-09T00:39:47;15.40;63.10
1413;DHT22;701;52.526;13.408;2022-09-09T00:42:24;15.40;63.20
1413;DHT22;701;52.526;13.408;2022-09-09T00:47:51;15.40;63.20
1413;DHT22;701;52.526;13.408;2022-09-09T00:58:25;15.30;63.80
1413;DHT22;701;52.526;13.408;2022-09-09T01:01:06;15.30;63.60
1413;DHT22;701;52.526;13.408;2022-09-09T01:03:38;15.30;63.60
1413;DHT22;701;52.526;13.408;2022-09-09T01:06:18;15.30;63.80
1413;DHT22;701;52.526;13.408;2022-09-09T01:12:17;15.30;64.10
1413;DHT22;701;52.526;13.408;2022-09-09T01:14:49;15.30;64.00
1413;DHT22;701;52.526;13.408;2022-09-09T01:17:31;15.20;64.10
1413;DHT22;701;52.526;13.408;2022-09-09T01:20:23;15.20;64.10
1413;DHT22;701;52.526;13.408;2022-09-09T01:23:17;15.20;64.20
1413;DHT22;701;52.526;13.408;2022-09-09T01:28:47;15.20;64.40
1413;DHT22;701;52.526;13.408;2022-09-09T01:31:35;15.20;64.40
1413;DHT22;701;52.526;13.408;2022-09-09T01:34:04;15.10;64.30
1413;DHT22;701;52.526;13.408;2022-09-09T01:36:41;15.10;64.80
1413;DHT22;701;52.526;13.408;2022-09-09T01:39:08;15.10;64.90
1413;DHT22;701;52.526;13.408;2022-09-09T01:41:35;15.10;65.00
1413;DHT22;701;52.526;13.408;2022-09-09T01:44:05;15.00;65.00
1413;DHT22;701;52.526;13.408;2022-09-09T01:46:34;15.00;65.00
1413;DHT22;701;52.526;13.408;2022-09-09T01:49:02;15.00;65.00
1413;DHT22;701;52.526;13.408;2022-09-09T01:51:28;15.00;65.00
1413;DHT22;701;52.526;13.408;2022-09-09T01:53:56;15.00;64.80
1413;DHT22;701;52.526;13.408;2022-09-09T02:01:46;14.90;64.80
1413;DHT22;701;52.526;13.408;2022-09-09T02:04:29;14.90;64.90
1413;DHT22;701;52.526;13.408;2022-09-09T02:06:58;14.90;65.00
1413;DHT22;701;52.526;13.408;2022-09-09T02:09:30;14.80;64.90
1413;DHT22;701;52.526;13.408;2022-09-09T02:12:07;14.80;64.90
1413;DHT22;701;52.526;13.408;2022-09-09T02:14:42;14.80;65.20
1413;DHT22;701;52.526;13.408;2022-09-09T02:17:12;14.80;65.30
1413;DHT22;701;52.526;13.408;2022-09-09T02:20:05;14.80;65.90
1413;DHT22;701;52.526;13.408;2022-09-09T02:22:50;14.80;65.80
1413;DHT22;701;52.526;13.408;2022-09-09T02:25:20;14.80;65.90
1413;DHT22;701;52.526;13.408;2022-09-09T02:27:49;14.80;65.70
1413;DHT22;701;52.526;13.408;2022-09-09T02:30:16;14.80;65.60
1413;DHT22;701;52.526;13.408;2022-09-09T02:32:50;14.70;65.60
1413;DHT22;701;52.526;13.408;2022-09-09T02:35:20;14.70;65.70
1413;DHT22;701;52.526;13.408;2022-09-09T02:37:46;14.70;65.70
1413;DHT22;701;52.526;13.408;2022-09-09T02:40:13;14.70;65.70
1413;DHT22;701;52.526;13.408;2022-09-09T02:42:47;14.70;65.70
1413;DHT22;701;52.526;13.408;2022-09-09T02:45:16;14.70;65.70
1413;DHT22;701;52.526;13.408;2022-09-09T02:47:56;14.70;65.70
1413;DHT22;701;52.526;13.408;2022-09-09T02:50:34;14.70;65.70
1413;DHT22;701;52.526;13.408;2022-09-09T02:53:29;14.70;65.70
1413;DHT22;701;52.526;13.408;2022-09-09T02:56:04;14.70;65.80
1413;DHT22;701;52.526;13.408;2022-09-09T02:58:35;14.70;65.70
1413;DHT22;701;52.526;13.408;2022-09-09T03:01:04;14.70;65.70
1413;DHT22;701;52.526;13.408;2022-09-09T03:03:31;14.70;65.80
1413;DHT22;701;52.526;13.408;2022-09-09T03:05:58;14.70;65.80
1413;DHT22;701;52.526;13.408;2022-09-09T03:08:26;14.70;65.80
1413;DHT22;701;52.526;13.408;2022-09-09T03:10:58;14.70;65.70
1413;DHT22;701;52.526;13.408;2022-09-09T03:13:26;14.60;65.60
1413;DHT22;701;52.526;13.408;2022-09-09T03:15:52;14.60;65.60
1413;DHT22;701;52.526;13.408;2022-09-09T03:18:19;14.60;65.60
1413;DHT22;701;52.526;13.408;2022-09-09T03:20:49;14.60;65.60
1413;DHT22;701;52.526;13.408;2022-09-09T03:23:15;14.60;65.70
1413;DHT22;701;52.526;13.408;2022-09-09T03:25:47;14.60;65.60
1413;DHT22;701;52.526;13.408;2022-09-09T03:28:14;14.60;65.60
1413;DHT22;701;52.526;13.408;2022-09-09T03:30:40;14.60;65.60
1413;DHT22;701;52.526;13.408;2022-09-09T03:33:06;14.60;65.70
1413;DHT22;701;52.526;13.408;2022-09-09T03:35:32;14.60;65.60
1413;DHT22;701;52.526;13.408;2022-09-09T03:37:58;14.50;65.50
1413;DHT22;701;52.526;13.408;2022-09-09T03:40:24;14.50;65.60
1413;DHT22;701;52.526;13.408;2022-09-09T03:42:50;14.50;65.50
1413;DHT22;701;52.526;13.408;2022-09-09T03:45:16;14.50;65.50
1413;DHT22;701;52.526;13.408;2022-09-09T03:47:42;14.50;65.50
1413;DHT22;701;52.526;13.408;2022-09-09T03:50:09;14.50;65.50
1413;DHT22;701;52.526;13.408;2022-09-09T03:52:39;14.50;65.50
1413;DHT22;701;52.526;13.408;2022-09-09T03:55:08;14.50;65.50
1413;DHT22;701;52.526;13.408;2022-09-09T03:57:34;14.50;65.50
1413;DHT22;701;52.526;13.408;2022-09-09T04:00:04;14.40;65.40
1413;DHT22;701;52.526;13.408;2022-09-09T04:02:31;14.40;65.40
1413;DHT22;701;52.526;13.408;2022-09-09T04:04:57;14.40;65.40
1413;DHT22;701;52.526;13.408;2022-09-09T04:07:22;14.40;65.40
1413;DHT22;701;52.526;13.408;2022-09-09T04:09:48;14.40;65.40
1413;DHT22;701;52.526;13.408;2022-09-09T04:12:14;14.40;65.40
1413;DHT22;701;52.526;13.408;2022-09-09T04:14:40;14.40;65.40
1413;DHT22;701;52.526;13.408;2022-09-09T04:17:06;14.30;65.30
1413;DHT22;701;52.526;13.408;2022-09-09T04:19:32;14.40;65.40
1413;DHT22;701;52.526;13.408;2022-09-09T04:21:58;14.30;65.30
1413;DHT22;701;52.526;13.408;2022-09-09T04:24:24;14.30;65.30
1413;DHT22;701;52.526;13.408;2022-09-09T04:26:55;14.30;65.30
1413;DHT22;701;52.526;13.408;2022-09-09T04:29:21;14.30;65.30
1413;DHT22;701;52.526;13.408;2022-09-09T04:31:47;14.30;65.30
1413;DHT22;701;52.526;13.408;2022-09-09T04:34:12;14.40;65.40
1413;DHT22;701;52.526;13.408;2022-09-09T04:36:39;14.40;65.40
1413;DHT22;701;52.526;13.408;2022-09-09T04:39:06;14.40;65.50
1413;DHT22;701;52.526;13.408;2022-09-09T04:41:31;14.40;65.50
1413;DHT22;701;52.526;13.408;2022-09-09T04:43:58;14.40;65.60
1413;DHT22;701;52.526;13.408;2022-09-09T04:46:25;14.50;65.50
1413;DHT22;701;52.526;13.408;2022-09-09T04:48:51;14.50;65.50
1413;DHT22;701;52.526;13.408;2022-09-09T04:51:18;14.50;65.50
1413;DHT22;701;52.526;13.408;2022-09-09T04:53:46;14.50;65.60
1413;DHT22;701;52.526;13.408;2022-09-09T04:56:15;14.60;65.60
1413;DHT22;701;52.526;13.408;2022-09-09T04:58:46;14.60;65.70
1413;DHT22;701;52.526;13.408;2022-09-09T05:01:18;14.70;65.70
1413;DHT22;701;52.526;13.408;2022-09-09T05:03:45;14.70;65.70
1413;DHT22;701;52.526;13.408;2022-09-09T05:06:14;14.70;65.70
1413;DHT22;701;52.526;13.408;2022-09-09T05:08:42;14.80;65.80
1413;DHT22;701;52.526;13.408;2022-09-09T05:11:23;14.80;65.70
1413;DHT22;701;52.526;13.408;2022-09-09T05:13:51;14.90;65.30
1413;DHT22;701;52.526;13.408;2022-09-09T05:16:19;14.90;65.10
1413;DHT22;701;52.526;13.408;2022-09-09T05:18:45;15.00;65.00
1413;DHT22;701;52.526;13.408;2022-09-09T05:21:17;15.00;64.90
1413;DHT22;701;52.526;13.408;2022-09-09T05:23:44;15.10;64.70
1413;DHT22;701;52.526;13.408;2022-09-09T05:26:13;15.10;64.80
1413;DHT22;701;52.526;13.408;2022-09-09T05:28:40;15.20;64.90
1413;DHT22;701;52.526;13.408;2022-09-09T05:31:08;15.30;64.60
1413;DHT22;701;52.526;13.408;2022-09-09T05:33:38;15.40;64.40
1413;DHT22;701;52.526;13.408;2022-09-09T05:36:08;15.40;64.00
1413;DHT22;701;52.526;13.408;2022-09-09T05:38:34;15.50;63.80
1413;DHT22;701;52.526;13.408;2022-09-09T05:41:02;15.50;63.30
1413;DHT22;701;52.526;13.408;2022-09-09T05:43:29;15.60;63.10
1413;DHT22;701;52.526;13.408;2022-09-09T05:46:00;15.60;62.80
1413;DHT22;701;52.526;13.408;2022-09-09T05:48:38;15.60;62.00
1413;DHT22;701;52.526;13.408;2022-09-09T05:51:07;15.60;62.00
1413;DHT22;701;52.526;13.408;2022-09-09T05:53:34;15.70;62.10
1413;DHT22;701;52.526;13.408;2022-09-09T05:56:04;15.70;62.10
1413;DHT22;701;52.526;13.408;2022-09-09T05:58:33;15.70;61.90
1413;DHT22;701;52.526;13.408;2022-09-09T06:01:04;15.80;62.20
1413;DHT22;701;52.526;13.408;2022-09-09T06:03:31;15.80;62.20
1413;DHT22;701;52.526;13.408;2022-09-09T06:05:58;15.90;61.30
1413;DHT22;701;52.526;13.408;2022-09-09T06:08:24;15.90;60.50
1413;DHT22;701;52.526;13.408;2022-09-09T06:10:50;16.00;60.80
1413;DHT22;701;52.526;13.408;2022-09-09T06:13:17;16.00;60.60
1413;DHT22;701;52.526;13.408;2022-09-09T06:15:53;16.00;59.20
1413;DHT22;701;52.526;13.408;2022-09-09T06:18:19;16.10;59.20
1413;DHT22;701;52.526;13.408;2022-09-09T06:20:55;16.10;59.20
1413;DHT22;701;52.526;13.408;2022-09-09T06:23:21;16.10;58.90
1413;DHT22;701;52.526;13.408;2022-09-09T06:25:46;16.10;58.80
1413;DHT22;701;52.526;13.408;2022-09-09T06:28:12;16.10;58.60
1413;DHT22;701;52.526;13.408;2022-09-09T06:30:39;16.20;59.60
1413;DHT22;701;52.526;13.408;2022-09-09T06:33:05;16.20;58.20
1413;DHT22;701;52.526;13.408;2022-09-09T06:35:31;16.20;58.20
1413;DHT22;701;52.526;13.408;2022-09-09T06:37:57;16.30;58.30
1413;DHT22;701;52.526;13.408;2022-09-09T06:40:24;16.40;58.30
1413;DHT22;701;52.526;13.408;2022-09-09T06:42:50;16.40;58.30
1413;DHT22;701;52.526;13.408;2022-09-09T06:45:30;16.50;58.40
1413;DHT22;701;52.526;13.408;2022-09-09T06:47:57;16.70;58.60
1413;DHT22;701;52.526;13.408;2022-09-09T06:50:23;16.80;58.10
1413;DHT22;701;52.526;13.408;2022-09-09T06:52:49;17.00;58.20
1413;DHT22;701;52.526;13.408;2022-09-09T06:55:15;17.20;57.50
1413;DHT22;701;52.526;13.408;2022-09-09T06:57:43;17.40;56.80
1413;DHT22;701;52.526;13.408;2022-09-09T07:00:14;17.70;55.00
1413;DHT22;701;52.526;13.408;2022-09-09T07:02:40;18.10;55.60
1413;DHT22;701;52.526;13.408;2022-09-09T07:05:08;18.30;54.20
1413;DHT22;701;52.526;13.408;2022-09-09T07:07:34;18.50;52.10
1413;DHT22;701;52.526;13.408;2022-09-09T07:10:00;18.60;50.60
1413;DHT22;701;52.526;13.408;2022-09-09T07:12:27;18.70;49.80
1413;DHT22;701;52.526;13.408;2022-09-09T07:14:57;18.70;49.50
1413;DHT22;701;52.526;13.408;2022-09-09T07:17:22;18.80;48.70
1413;DHT22;701;52.526;13.408;2022-09-09T07:19:48;19.00;47.90
1413;DHT22;701;52.526;13.408;2022-09-09T07:22:15;19.20;46.80
1413;DHT22;701;52.526;13.408;2022-09-09T07:24:42;19.40;46.20
1413;DHT22;701;52.526;13.408;2022-09-09T07:27:08;19.60;44.00
1413;DHT22;701;52.526;13.408;2022-09-09T07:29:35;19.80;40.40
1413;DHT22;701;52.526;13.408;2022-09-09T07:32:01;19.80;42.80
1413;DHT22;701;52.526;13.408;2022-09-09T07:34:32;19.80;41.30
1413;DHT22;701;52.526;13.408;2022-09-09T07:36:58;19.90;40.10
1413;DHT22;701;52.526;13.408;2022-09-09T07:39:24;19.90;42.00
1413;DHT22;701;52.526;13.408;2022-09-09T07:41:52;20.00;41.80
1413;DHT22;701;52.526;13.408;2022-09-09T07:44:23;20.10;40.40
1413;DHT22;701;52.526;13.408;2022-09-09T07:46:59;20.20;40.90
1413;DHT22;701;52.526;13.408;2022-09-09T07:49:30;20.30;38.90
1413;DHT22;701;52.526;13.408;2022-09-09T07:51:55;20.40;37.90
1413;DHT22;701;52.526;13.408;2022-09-09T07:54:21;20.60;39.30
1413;DHT22;701;52.526;13.408;2022-09-09T07:56:50;20.80;38.50
1413;DHT22;701;52.526;13.408;2022-09-09T07:59:16;21.20;38.20
1413;DHT22;701;52.526;13.408;2022-09-09T08:01:51;21.50;35.50
1413;DHT22;701;52.526;13.408;2022-09-09T08:04:24;21.90;32.50
1413;DHT22;701;52.526;13.408;2022-09-09T08:06:53;22.20;34.90
1413;DHT22;701;52.526;13.408;2022-09-09T08:09:21;22.40;33.00
1413;DHT22;701;52.526;13.408;2022-09-09T08:11:48;22.60;32.30
1413;DHT22;701;52.526;13.408;2022-09-09T08:14:15;22.70;32.00
1413;DHT22;701;52.526;13.408;2022-09-09T08:16:44;22.70;30.60
1413;DHT22;701;52.526;13.408;2022-09-09T08:19:12;22.70;29.10
1413;DHT22;701;52.526;13.408;2022-09-09T08:21:39;22.60;28.90
1413;DHT22;701;52.526;13.408;2022-09-09T08:24:07;22.50;28.50
1413;DHT22;701;52.526;13.408;2022-09-09T08:26:39;22.40;27.60
1413;DHT22;701;52.526;13.408;2022-09-09T08:29:07;22.20;27.50
1413;DHT22;701;52.526;13.408;2022-09-09T08:31:38;22.10;26.70
1413;DHT22;701;52.526;13.408;2022-09-09T08:34:06;22.10;26.90
1413;DHT22;701;52.526;13.408;2022-09-09T08:36:38;22.10;27.60
1413;DHT22;701;52.526;13.408;2022-09-09T08:39:06;22.20;26.50
1413;DHT22;701;52.526;13.408;2022-09-09T08:47:14;23.00;26.20
1413;DHT22;701;52.526;13.408;2022-09-09T08:49:51;23.50;21.40
1413;DHT22;701;52.526;13.408;2022-09-09T08:52:30;23.70;23.40
1413;DHT22;701;52.526;13.408;2022-09-09T08:57:58;23.90;22.10
1413;DHT22;701;52.526;13.408;2022-09-09T09:09:10;23.90;18.80
1413;DHT22;701;52.526;13.408;2022-09-09T09:11:49;23.90;20.30
1413;DHT22;701;52.526;13.408;2022-09-09T09:14:20;24.00;20.30
1413;DHT22;701;52.526;13.408;2022-09-09T09:17:04;24.20;19.70
1413;DHT22;701;52.526;13.408;2022-09-09T09:19:33;24.80;19.50
1413;DHT22;701;52.526;13.408;2022-09-09T09:22:16;25.70;18.80
1413;DHT22;701;52.526;13.408;2022-09-09T09:25:02;26.60;15.90
1413;DHT22;701;52.526;13.408;2022-09-09T09:27:34;27.50;12.30
1413;DHT22;701;52.526;13.408;2022-09-09T09:30:18;28.30;13.40
1413;DHT22;701;52.526;13.408;2022-09-09T09:33:02;29.10;10.30
1413;DHT22;701;52.526;13.408;2022-09-09T09:35:29;29.80;7.70
1413;DHT22;701;52.526;13.408;2022-09-09T09:37:55;30.90;8.70
1413;DHT22;701;52.526;13.408;2022-09-09T09:40:22;31.80;7.00
1413;DHT22;701;52.526;13.408;2022-09-09T09:42:54;32.50;3.80
1413;DHT22;701;52.526;13.408;2022-09-09T09:45:34;32.90;2.20
1413;DHT22;701;52.526;13.408;2022-09-09T09:48:08;33.40;1.00
1413;DHT22;701;52.526;13.408;2022-09-09T09:50:48;33.70;1.00
1413;DHT22;701;52.526;13.408;2022-09-09T09:53:31;34.00;1.00
1413;DHT22;701;52.526;13.408;2022-09-09T09:56:01;34.40;1.00
1413;DHT22;701;52.526;13.408;2022-09-09T09:58:32;34.20;1.00
1413;DHT22;701;52.526;13.408;2022-09-09T10:01:00;34.10;1.00
1413;DHT22;701;52.526;13.408;2022-09-09T10:03:33;34.10;1.00
1413;DHT22;701;52.526;13.408;2022-09-09T10:06:05;34.00;1.00
1413;DHT22;701;52.526;13.408;2022-09-09T10:08:34;33.90;1.00
1413;DHT22;701;52.526;13.408;2022-09-09T10:16:45;33.50;1.00
1413;DHT22;701;52.526;13.408;2022-09-09T10:19:35;33.30;1.00
1413;DHT22;701;52.526;13.408;2022-09-09T10:22:10;33.00;1.00
1413;DHT22;701;52.526;13.408;2022-09-09T10:27:38;32.70;1.00
1413;DHT22;701;52.526;13.408;2022-09-09T10:30:21;32.70;1.00
1413;DHT22;701;52.526;13.408;2022-09-09T10:33:09;32.70;1.00
1413;DHT22;701;52.526;13.408;2022-09-09T10:38:17;32.40;1.00
1413;DHT22;701;52.526;13.408;2022-09-09T10:40:46;32.20;1.00
1413;DHT22;701;52.526;13.408;2022-09-09T10:43:46;32.00;1.00
1413;DHT22;701;52.526;13.408;2022-09-09T10:57:13;31.20;1.00
1413;DHT22;701;52.526;13.408;2022-09-09T10:59:46;31.00;1.00
1413;DHT22;701;52.526;13.408;2022-09-09T11:02:28;30.80;1.00
1413;DHT22;701;52.526;13.408;2022-09-09T11:05:05;30.70;1.00
1413;DHT22;701;52.526;13.408;2022-09-09T11:07:41;30.70;1.00
1413;DHT22;701;52.526;13.408;2022-09-09T11:13:14;30.50;1.00
1413;DHT22;701;52.526;13.408;2022-09-09T11:15:50;30.40;1.00
1413;DHT22;701;52.526;13.408;2022-09-09T11:18:21;30.20;1.00
1413;DHT22;701;52.526;13.408;2022-09-09T11:20:51;30.10;1.00
1413;DHT22;701;52.526;13.408;2022-09-09T11:23:48;29.90;1.00
1413;DHT22;701;52.526;13.408;2022-09-09T11:26:16;29.60;1.00
1413;DHT22;701;52.526;13.408;2022-09-09T11:35:02;28.80;1.80
1413;DHT22;701;52.526;13.408;2022-09-09T11:40:17;28.40;2.90
1413;DHT22;701;52.526;13.408;2022-09-09T11:42:45;28.30;2.80
1413;DHT22;701;52.526;13.408;2022-09-09T11:45:26;28.20;3.10
1413;DHT22;701;52.526;13.408;2022-09-09T11:47:57;28.00;3.30
1413;DHT22;701;52.526;13.408;2022-09-09T11:52:49;27.70;3.80
1413;DHT22;701;52.526;13.408;2022-09-09T11:55:30;27.50;4.00
1413;DHT22;701;52.526;13.408;2022-09-09T11:57:59;27.20;4.40
1413;DHT22;701;52.526;13.408;2022-09-09T12:00:44;27.00;5.00
1413;DHT22;701;52.526;13.408;2022-09-09T12:03:45;26.90;4.90
1413;DHT22;701;52.526;13.408;2022-09-09T12:08:45;26.30;4.60
1413;DHT22;701;52.526;13.408;2022-09-09T12:11:27;26.20;4.60
1413;DHT22;701;52.526;13.408;2022-09-09T12:13:58;26.10;4.50
1413;DHT22;701;52.526;13.408;2022-09-09T12:16:33;26.00;4.90
1413;DHT22;701;52.526;13.408;2022-09-09T12:19:14;25.90;5.30
1413;DHT22;701;52.526;13.408;2022-09-09T12:22:04;25.70;5.30
1413;DHT22;701;52.526;13.408;2022-09-09T12:24:43;25.70;5.70
1413;DHT22;701;52.526;13.408;2022-09-09T12:27:57;25.60;6.10
1413;DHT22;701;52.526;13.408;2022-09-09T12:30:32;25.50;6.70
1413;DHT22;701;52.526;13.408;2022-09-09T12:33:10;25.30;6.60
1413;DHT22;701;52.526;13.408;2022-09-09T12:35:37;25.20;6.80
1413;DHT22;701;52.526;13.408;2022-09-09T12:38:05;25.20;7.00
1413;DHT22;701;52.526;13.408;2022-09-09T12:40:35;25.20;7.00
1413;DHT22;701;52.526;13.408;2022-09-09T12:43:02;25.30;7.00
1413;DHT22;701;52.526;13.408;2022-09-09T12:45:41;25.30;6.80
1413;DHT22;701;52.526;13.408;2022-09-09T12:48:09;25.30;6.20
1413;DHT22;701;52.526;13.408;2022-09-09T12:50:57;25.40;6.20
1413;DHT22;701;52.526;13.408;2022-09-09T12:53:27;25.40;5.80
1413;DHT22;701;52.526;13.408;2022-09-09T12:56:08;25.40;6.10
1413;DHT22;701;52.526;13.408;2022-09-09T12:58:38;25.50;6.00
1413;DHT22;701;52.526;13.408;2022-09-09T13:01:06;25.60;6.20
1413;DHT22;701;52.526;13.408;2022-09-09T13:03:43;25.70;6.10
1413;DHT22;701;52.526;13.408;2022-09-09T13:06:21;25.80;5.80
1413;DHT22;701;52.526;13.408;2022-09-09T13:08:49;25.90;5.00
1413;DHT22;701;52.526;13.408;2022-09-09T13:11:29;26.00;5.30
1413;DHT22;701;52.526;13.408;2022-09-09T13:13:57;26.10;4.90
1413;DHT22;701;52.526;13.408;2022-09-09T13:16:29;26.20;4.90
1413;DHT22;701;52.526;13.408;2022-09-09T13:19:06;26.30;4.70
1413;DHT22;701;52.526;13.408;2022-09-09T13:21:37;26.30;4.60
1413;DHT22;701;52.526;13.408;2022-09-09T13:24:31;26.40;4.60
1413;DHT22;701;52.526;13.408;2022-09-09T13:27:02;26.40;4.40
1413;DHT22;701;52.526;13.408;2022-09-09T13:29:28;26.40;4.60
1413;DHT22;701;52.526;13.408;2022-09-09T13:32:04;26.30;4.60
1413;DHT22;701;52.526;13.408;2022-09-09T13:34:33;26.40;4.50
1413;DHT22;701;52.526;13.408;2022-09-09T13:37:05;26.40;4.60
1413;DHT22;701;52.526;13.408;2022-09-09T13:39:35;26.40;4.60
1413;DHT22;701;52.526;13.408;2022-09-09T13:42:02;26.40;4.50
1413;DHT22;701;52.526;13.408;2022-09-09T13:44:38;26.40;4.50
1413;DHT22;701;52.526;13.408;2022-09-09T13:47:15;26.60;4.00
1413;DHT22;701;52.526;13.408;2022-09-09T13:49:42;26.70;4.30
1413;DHT22;701;52.526;13.408;2022-09-09T13:52:10;26.90;3.70
1413;DHT22;701;52.526;13.408;2022-09-09T13:54:37;27.00;3.20
1413;DHT22;701;52.526;13.408;2022-09-09T13:57:03;27.10;3.20
1413;DHT22;701;52.526;13.408;2022-09-09T13:59:30;27.20;3.00
1413;DHT22;701;52.526;13.408;2022-09-09T14:01:57;27.20;3.00
1413;DHT22;701;52.526;13.408;2022-09-09T14:04:22;27.20;3.00
1413;DHT22;701;52.526;13.408;2022-09-09T14:06:49;27.30;2.80
1413;DHT22;701;52.526;13.408;2022-09-09T14:09:17;27.30;2.70
1413;DHT22;701;52.526;13.408;2022-09-09T14:11:44;27.20;2.30
1413;DHT22;701;52.526;13.408;2022-09-09T14:14:10;27.30;2.10
1413;DHT22;701;52.526;13.408;2022-09-09T14:16:36;27.30;2.30
1413;DHT22;701;52.526;13.408;2022-09-09T14:19:03;27.30;2.20
1413;DHT22;701;52.526;13.408;2022-09-09T14:21:29;27.30;1.90
1413;DHT22;701;52.526;13.408;2022-09-09T14:23:55;27.30;1.60
1413;DHT22;701;52.526;13.408;2022-09-09T14:26:23;27.40;1.80
1413;DHT22;701;52.526;13.408;2022-09-09T14:28:50;27.70;1.70
1413;DHT22;701;52.526;13.408;2022-09-09T14:31:16;27.70;1.30
1413;DHT22;701;52.526;13.408;2022-09-09T14:33:46;27.60;1.30
1413;DHT22;701;52.526;13.408;2022-09-09T14:36:12;27.60;1.30
1413;DHT22;701;52.526;13.408;2022-09-09T14:38:38;27.50;1.50
1413;DHT22;701;52.526;13.408;2022-09-09T14:41:06;27.40;1.80
1413;DHT22;701;52.526;13.408;2022-09-09T14:43:32;27.30;2.00
1413;DHT22;701;52.526;13.408;2022-09-09T14:46:05;27.30;2.20
1413;DHT22;701;52.526;13.408;2022-09-09T14:48:31;27.30;2.20
1413;DHT22;701;52.526;13.408;2022-09-09T14:50:56;27.10;2.40
1413;DHT22;701;52.526;13.408;2022-09-09T14:53:22;26.80;2.60
1413;DHT22;701;52.526;13.408;2022-09-09T14:55:48;26.60;2.90
1413;DHT22;701;52.526;13.408;2022-09-09T14:58:14;26.30;3.40
1413;DHT22;701;52.526;13.408;2022-09-09T15:00:40;26.10;4.00
1413;DHT22;701;52.526;13.408;2022-09-09T15:03:06;25.80;4.20
1413;DHT22;701;52.526;13.408;2022-09-09T15:05:32;25.70;4.30
1413;DHT22;701;52.526;13.408;2022-09-09T15:07:57;25.50;4.70
1413;DHT22;701;52.526;13.408;2022-09-09T15:10:24;25.40;5.00
1413;DHT22;701;52.526;13.408;2022-09-09T15:12:50;25.30;5.20
1413;DHT22;701;52.526;13.408;2022-09-09T15:15:16;25.30;5.30
1413;DHT22;701;52.526;13.408;2022-09-09T15:17:41;25.20;5.40
1413;DHT22;701;52.526;13.408;2022-09-09T15:20:07;25.20;5.60
1413;DHT22;701;52.526;13.408;2022-09-09T15:22:33;25.30;5.80
1413;DHT22;701;52.526;13.408;2022-09-09T15:24:59;25.50;5.70
1413;DHT22;701;52.526;13.408;2022-09-09T15:27:25;25.70;5.30
1413;DHT22;701;52.526;13.408;2022-09-09T15:29:51;25.80;4.30
1413;DHT22;701;52.526;13.408;2022-09-09T15:32:17;25.80;4.30
1413;DHT22;701;52.526;13.408;2022-09-09T15:34:43;25.80;4.30
1413;DHT22;701;52.526;13.408;2022-09-09T15:37:12;25.80;4.40
1413;DHT22;701;52.526;13.408;2022-09-09T15:39:39;25.80;4.30
1413;DHT22;701;52.526;13.408;2022-09-09T15:42:05;25.70;4.30
1413;DHT22;701;52.526;13.408;2022-09-09T15:44:42;25.60;4.40
1413;DHT22;701;52.526;13.408;2022-09-09T15:47:11;25.40;4.10
1413;DHT22;701;52.526;13.408;2022-09-09T15:49:37;25.20;4.60
1413;DHT22;701;52.526;13.408;2022-09-09T15:52:04;25.00;4.90
1413;DHT22;701;52.526;13.408;2022-09-09T15:54:33;24.80;5.30
1413;DHT22;701;52.526;13.408;2022-09-09T15:57:01;24.60;5.50
1413;DHT22;701;52.526;13.408;2022-09-09T15:59:29;24.30;5.40
1413;DHT22;701;52.526;13.408;2022-09-09T16:01:55;24.20;5.70
1413;DHT22;701;52.526;13.408;2022-09-09T16:07:50;23.90;6.10
1413;DHT22;701;52.526;13.408;2022-09-09T16:10:17;23.80;6.40
1413;DHT22;701;52.526;13.408;2022-09-09T16:12:43;23.60;6.40
1413;DHT22;701;52.526;13.408;2022-09-09T16:15:09;23.60;7.00
1413;DHT22;701;52.526;13.408;2022-09-09T16:17:35;23.60;7.00
1413;DHT22;701;52.526;13.408;2022-09-09T16:20:03;23.60;7.00
1413;DHT22;701;52.526;13.408;2022-09-09T16:22:32;23.60;7.00
1413;DHT22;701;52.526;13.408;2022-09-09T16:24:57;23.60;7.00
1413;DHT22;701;52.526;13.408;2022-09-09T16:27:23;23.60;7.00
1413;DHT22;701;52.526;13.408;2022-09-09T16:29:49;23.70;7.00
1413;DHT22;701;52.526;13.408;2022-09-09T16:32:14;23.70;7.00
1413;DHT22;701;52.526;13.408;2022-09-09T16:34:40;23.70;7.00
1413;DHT22;701;52.526;13.408;2022-09-09T16:37:08;23.70;7.00
1413;DHT22;701;52.526;13.408;2022-09-09T16:39:36;23.60;7.50
1413;DHT22;701;52.526;13.408;2022-09-09T16:42:02;23.60;7.00
1413;DHT22;701;52.526;13.408;2022-09-09T16:44:30;23.60;7.00
1413;DHT22;701;52.526;13.408;2022-09-09T16:46:56;23.50;6.90
1413;DHT22;701;52.526;13.408;2022-09-09T16:49:22;23.50;6.90
1413;DHT22;701;52.526;13.408;2022-09-09T16:51:49;23.40;7.30
1413;DHT22;701;52.526;13.408;2022-09-09T16:54:18;23.30;7.50
1413;DHT22;701;52.526;13.408;2022-09-09T16:56:46;23.30;7.70
1413;DHT22;701;52.526;13.408;2022-09-09T16:59:15;23.20;7.90
1413;DHT22;701;52.526;13.408;2022-09-09T17:01:42;23.10;8.20
1413;DHT22;701;52.526;13.408;2022-09-09T17:04:17;23.00;8.40
1413;DHT22;701;52.526;13.408;2022-09-09T17:06:47;22.90;8.60
1413;DHT22;701;52.526;13.408;2022-09-09T17:09:14;22.80;9.00
1413;DHT22;701;52.526;13.408;2022-09-09T17:11:40;22.80;9.50
1413;DHT22;701;52.526;13.408;2022-09-09T17:14:08;22.70;10.50
1413;DHT22;701;52.526;13.408;2022-09-09T17:16:35;22.50;11.10
1413;DHT22;701;52.526;13.408;2022-09-09T17:19:03;22.50;11.40
1413;DHT22;701;52.526;13.408;2022-09-09T17:21:30;22.40;11.60
1413;DHT22;701;52.526;13.408;2022-09-09T17:23:57;22.30;12.40
1413;DHT22;701;52.526;13.408;2022-09-09T17:26:25;22.20;12.80
1413;DHT22;701;52.526;13.408;2022-09-09T17:28:52;22.10;13.40
1413;DHT22;701;52.526;13.408;2022-09-09T17:31:18;22.00;14.00
1413;DHT22;701;52.526;13.408;2022-09-09T17:33:46;21.90;14.80
1413;DHT22;701;52.526;13.408;2022-09-09T17:36:19;21.70;15.70
1413;DHT22;701;52.526;13.408;2022-09-09T17:38:46;21.60;17.20
1413;DHT22;701;52.526;13.408;2022-09-09T17:41:16;21.50;17.20
1413;DHT22;701;52.526;13.408;2022-09-09T17:43:42;21.30;18.80
1413;DHT22;701;52.526;13.408;2022-09-09T17:46:14;21.20;18.50
1413;DHT22;701;52.526;13.408;2022-09-09T17:48:40;21.10;18.10
1413;DHT22;701;52.526;13.408;2022-09-09T17:51:09;21.00;18.00
1413;DHT22;701;52.526;13.408;2022-09-09T17:53:44;20.90;18.10
1413;DHT22;701;52.526;13.408;2022-09-09T17:56:12;20.80;18.30
1413;DHT22;701;52.526;13.408;2022-09-09T17:58:39;20.70;19.00